Weather History for Savanna, IL

Change the Weather History Date:

Monday, March 25, 2013

  Actual Average (KCWI) Record (KCWI)
Temperature  
Mean Temperature 34 °F -  
Max Temperature 39 °F 49 °F 78 °F (2007)
Min Temperature 29 °F 30 °F 4 °F (1960)
Degree Days  
Heating Degree Days 32    
Moisture  
Dew Point 23 °F    
Average Humidity 67    
Maximum Humidity 73    
Minimum Humidity 58    
Precipitation  
Precipitation 0.00 in - - ()
Sea Level Pressure  
Sea Level Pressure 29.97 in    
Wind  
Wind Speed 11 mph (NNW)    
Max Wind Speed 17 mph    
Max Gust Speed 24 mph    
Visibility 10 miles    
Events      
Averages and records for this station are not official NWS values.
T = Trace of Precipitation, MM = Missing Value Source: NWS Daily Summary

Daily Weather History Graph

Daily Weather History Graph

Search for Another Location

Airport:

Trip Planner

Search our weather history database for the weather conditions in past years. The results will help you decide how hot, cold, wet, or windy it might be!

Date:

Astronomy

Mar. 25, 2013 Rise Set
Actual Time 6:54 AM CDT 7:18 PM CDT
Civil Twilight 6:26 AM CDT 7:46 PM CDT
Nautical Twilight 5:53 AM CDT 8:19 PM CDT
Astronomical Twilight 5:20 AM CDT 8:53 PM CDT
Moon 5:49 PM CDT (3/25) 5:39 AM CDT (3/25)
Length of Visible Light 13h 19m
Length of Day
12h 23m
Waxing Gibbous, 96% of the Moon is Illuminated
Mar 25
Waxing Gibbous
Mar 27
Full
Apr 2
Last Quarter
Apr 10
New
Apr 18
First Quarter

Hourly Weather History & Observations

Time (CDT) Temp. Windchill Dew Point Humidity Pressure Visibility Wind Dir Wind Speed Gust Speed Precip Events Conditions
12:15 AM 31.8 °F 23.3 °F 23.2 °F 70% 29.83 in 10.0 mi North 10.4 mph - N/A   Overcast
12:35 AM 31.8 °F 23.3 °F 23.0 °F 70% 29.83 in 10.0 mi NNW 10.4 mph - N/A   Overcast
12:55 AM 31.5 °F 23.5 °F 23.0 °F 71% 29.83 in 10.0 mi NNW 9.2 mph - N/A   Overcast
1:15 AM 31.1 °F 23.1 °F 23.4 °F 73% 29.84 in 10.0 mi NNW 9.2 mph - N/A   Overcast
1:35 AM 31.1 °F 23.7 °F 23.4 °F 73% 29.84 in 10.0 mi NNW 8.1 mph - N/A   Overcast
1:55 AM 30.9 °F 23.5 °F 23.0 °F 72% 29.84 in 10.0 mi NNW 8.1 mph - N/A   Overcast
2:15 AM 30.9 °F 23.5 °F 23.0 °F 72% 29.84 in 10.0 mi NNW 8.1 mph - N/A   Overcast
2:55 AM 30.6 °F 22.4 °F 22.6 °F 72% 29.83 in 10.0 mi NNW 9.2 mph - N/A   Overcast
3:15 AM 30.7 °F 22.0 °F 22.1 °F 70% 29.83 in 10.0 mi North 10.4 mph - N/A   Overcast
3:35 AM 30.2 °F 22.6 °F 21.9 °F 71% 29.83 in 10.0 mi NNW 8.1 mph - N/A   Scattered Clouds
3:55 AM 30.2 °F 21.3 °F 21.2 °F 69% 29.83 in 10.0 mi North 10.4 mph - N/A   Mostly Cloudy
4:15 AM 30.4 °F 21.0 °F 20.5 °F 67% 29.83 in 10.0 mi NNW 11.5 mph - N/A   Overcast
4:35 AM 30.2 °F 20.2 °F 19.8 °F 65% 29.83 in 10.0 mi North 12.7 mph - N/A   Overcast
4:55 AM 29.8 °F 19.8 °F 19.9 °F 67% 29.84 in 10.0 mi NNW 12.7 mph - N/A   Scattered Clouds
5:15 AM 29.8 °F 20.3 °F 19.4 °F 65% 29.84 in 10.0 mi NNW 11.5 mph 17.3 mph N/A   Mostly Cloudy
5:35 AM 29.8 °F 19.3 °F 19.6 °F 66% 29.85 in 10.0 mi NNW 13.8 mph 17.3 mph N/A   Overcast
5:55 AM 29.8 °F 18.4 °F 19.8 °F 66% 29.85 in 10.0 mi NNW 16.1 mph 19.6 mph N/A   Overcast
6:15 AM 29.8 °F 18.9 °F 19.8 °F 66% 29.85 in 10.0 mi North 15.0 mph 20.7 mph N/A   Overcast
6:35 AM 29.8 °F 19.8 °F 19.9 °F 67% 29.86 in 10.0 mi NNW 12.7 mph 19.6 mph N/A   Overcast
6:55 AM 29.8 °F 20.3 °F 20.1 °F 67% 29.87 in 10.0 mi NNW 11.5 mph - N/A   Overcast
7:15 AM 29.8 °F 19.8 °F 20.3 °F 68% 29.88 in 10.0 mi North 12.7 mph 17.3 mph N/A   Overcast
7:35 AM 29.8 °F 20.3 °F 20.5 °F 68% 29.88 in 10.0 mi NNW 11.5 mph 17.3 mph N/A   Overcast
7:55 AM 29.8 °F 19.3 °F 20.5 °F 68% 29.89 in 10.0 mi NNW 13.8 mph 24.2 mph N/A   Overcast
8:15 AM 29.8 °F 19.3 °F 21.0 °F 70% 29.90 in 10.0 mi NNW 13.8 mph 19.6 mph N/A   Overcast
8:35 AM 30.2 °F 18.9 °F 21.2 °F 69% 29.91 in 10.0 mi NNW 16.1 mph - N/A   Overcast
8:55 AM 30.6 °F 20.7 °F 21.2 °F 68% 29.91 in 10.0 mi NNW 12.7 mph 20.7 mph N/A   Overcast
9:15 AM 31.1 °F 20.5 °F 21.6 °F 68% 29.92 in 10.0 mi NNW 15.0 mph - N/A   Overcast
9:35 AM 31.6 °F 21.6 °F 22.1 °F 68% 29.93 in 10.0 mi North 13.8 mph 17.3 mph N/A   Overcast
9:55 AM 32.0 °F 20.8 °F 22.1 °F 67% 29.94 in 10.0 mi North 17.3 mph - N/A   Overcast
10:15 AM 32.0 °F 22.1 °F 22.6 °F 68% 29.94 in 10.0 mi NNW 13.8 mph 23.0 mph N/A   Mostly Cloudy
10:35 AM 32.4 °F 21.7 °F 22.8 °F 68% 29.95 in 10.0 mi NNW 16.1 mph 20.7 mph N/A   Mostly Cloudy
10:55 AM 32.7 °F 23.0 °F 23.4 °F 68% 29.96 in 10.0 mi NW 13.8 mph 18.4 mph N/A   Overcast
11:15 AM 32.9 °F 23.7 °F 23.7 °F 69% 29.96 in 10.0 mi NNW 12.7 mph - N/A   Overcast
11:35 AM 33.4 °F 24.3 °F 24.6 °F 70% 29.97 in 10.0 mi North 12.7 mph - N/A   Overcast
11:55 AM 33.8 °F 26.4 °F 25.2 °F 71% 29.97 in 10.0 mi NW 9.2 mph - N/A   Overcast
12:15 PM 35.2 °F 27.1 °F 25.7 °F 68% 29.97 in 10.0 mi NNW 11.5 mph - N/A   Mostly Cloudy
12:35 PM 36.0 °F 27.1 °F 26.8 °F 69% 29.97 in 10.0 mi North 13.8 mph 17.3 mph N/A   Scattered Clouds
12:55 PM 35.8 °F 27.3 °F 26.1 °F 68% 29.97 in 10.0 mi North 12.7 mph 19.6 mph N/A   Mostly Cloudy
1:15 PM 36.5 °F 27.4 °F 26.2 °F 66% 29.97 in 10.0 mi North 15.0 mph - N/A   Mostly Cloudy
1:35 PM 36.0 °F 28.0 °F 26.2 °F 68% 29.97 in 10.0 mi NW 11.5 mph - N/A   Overcast
1:55 PM 37.0 °F 29.3 °F 25.9 °F 64% 29.97 in 10.0 mi North 11.5 mph - N/A   Mostly Cloudy
2:15 PM 37.6 °F 29.1 °F 25.3 °F 61% 29.97 in 10.0 mi North 13.8 mph 19.6 mph N/A   Mostly Cloudy
2:35 PM 37.0 °F 27.7 °F 24.8 °F 61% 29.98 in 10.0 mi North 16.1 mph - N/A   Mostly Cloudy
2:55 PM 38.3 °F 29.7 °F 25.3 °F 60% 29.98 in 10.0 mi North 15.0 mph - N/A   Scattered Clouds
3:15 PM 37.0 °F 27.7 °F 23.7 °F 59% 29.98 in 10.0 mi North 16.1 mph 21.9 mph N/A   Mostly Cloudy
3:35 PM 37.6 °F 30.5 °F 24.1 °F 58% 29.99 in 10.0 mi North 10.4 mph - N/A   Overcast
3:55 PM 36.5 °F 27.8 °F 23.5 °F 59% 30.00 in 10.0 mi North 13.8 mph 19.6 mph N/A   Overcast
4:15 PM 36.7 °F 27.6 °F 23.5 °F 59% 30.01 in 10.0 mi North 15.0 mph 20.7 mph N/A   Overcast
4:35 PM 36.5 °F 28.2 °F 23.4 °F 59% 30.01 in 10.0 mi NNW 12.7 mph 18.4 mph N/A   Overcast
4:55 PM 36.1 °F 27.3 °F 23.0 °F 59% 30.02 in 10.0 mi NW 13.8 mph 18.4 mph N/A   Overcast
5:15 PM 36.0 °F 28.5 °F 23.2 °F 60% 30.03 in 10.0 mi NNW 10.4 mph 17.3 mph N/A   Overcast
5:35 PM 35.8 °F 27.8 °F 23.0 °F 60% 30.04 in 10.0 mi NNW 11.5 mph - N/A   Overcast
5:55 PM 35.6 °F 28.6 °F 23.0 °F 60% 30.05 in 10.0 mi North 9.2 mph 16.1 mph N/A   Overcast
6:15 PM 35.2 °F 26.6 °F 23.4 °F 62% 30.06 in 10.0 mi North 12.7 mph 19.6 mph N/A   Overcast
6:35 PM 35.2 °F 27.1 °F 22.6 °F 60% 30.07 in 10.0 mi NNW 11.5 mph - N/A   Overcast
6:55 PM 35.1 °F 27.9 °F 22.8 °F 61% 30.07 in 10.0 mi North 9.2 mph - N/A   Overcast
7:15 PM 34.9 °F 28.3 °F 23.4 °F 63% 30.09 in 10.0 mi NNW 8.1 mph - N/A   Overcast
7:35 PM 34.7 °F 28.8 °F 23.5 °F 64% 30.09 in 10.0 mi NW 6.9 mph - N/A   Overcast
7:55 PM 34.9 °F 29.0 °F 23.5 °F 63% 30.10 in 10.0 mi NW 6.9 mph - N/A   Overcast
8:15 PM 34.7 °F 29.6 °F 24.1 °F 65% 30.10 in 10.0 mi NW 5.8 mph - N/A   Overcast
8:35 PM 34.3 °F 30.2 °F 24.4 °F 67% 30.11 in 10.0 mi NW 4.6 mph - N/A   Overcast
8:55 PM 34.3 °F 30.2 °F 25.0 °F 69% 30.11 in 10.0 mi WNW 4.6 mph - N/A   Overcast
9:15 PM 34.2 °F 29.0 °F 25.5 °F 71% 30.12 in 10.0 mi WNW 5.8 mph - N/A   Overcast
9:35 PM 34.0 °F 29.8 °F 25.3 °F 71% 30.12 in 10.0 mi NW 4.6 mph - N/A   Overcast
9:55 PM 34.0 °F 29.8 °F 25.0 °F 70% 30.12 in 10.0 mi NW 4.6 mph - N/A   Overcast
10:15 PM 33.8 °F 28.6 °F 24.8 °F 70% 30.13 in 10.0 mi NW 5.8 mph - N/A   Overcast
10:35 PM 33.4 °F 29.1 °F 25.0 °F 71% 30.13 in 10.0 mi WNW 4.6 mph - N/A   Overcast
10:55 PM 33.4 °F 27.3 °F 24.8 °F 71% 30.13 in 10.0 mi NW 6.9 mph - N/A   Overcast
11:15 PM 33.8 °F 27.7 °F 24.8 °F 70% 30.13 in 10.0 mi WNW 6.9 mph - N/A   Overcast
11:35 PM 33.8 °F 27.0 °F 24.8 °F 70% 30.13 in 10.0 mi NW 8.1 mph - N/A   Overcast
11:55 PM 33.8 °F 28.6 °F 24.8 °F 70% 30.13 in 10.0 mi NW 5.8 mph - N/A   Overcast